DLH9LX ENGM-EDDF
Flight info
| Callsign | DLH9LX |
|---|---|
| Flight time | N/A |
| Altitude | 35000 |
| Route | VIPPA DCT RAXLU DCT RIMET T157 KERAX KERAX5A |
| Aircraft | A320/M-SDE3FGHIRWY/LB1 |
Departure
| Time | N/A |
|---|---|
| Airport | Oslo-Gardermoen International Airport (ENGM) |
Arrival
| Time | 2026-05-05 17:56 |
|---|---|
| Airport | Frankfurt Main Airport (EDDF) |
| Time | Latitude | Longitude | Altitude | Speed | Heading |
|---|---|---|---|---|---|
| 2026-05-05 17:10 | 53.88942 | 10.25959 | 34927 ft | 432 kts | 186° |
| 2026-05-05 17:10 | 53.85933 | 10.25910 | 34926 ft | 432 kts | 187° |
| 2026-05-05 17:10 | 53.79915 | 10.25808 | 34917 ft | 432 kts | 187° |
| 2026-05-05 17:11 | 53.73905 | 10.25720 | 34924 ft | 432 kts | 186° |
| 2026-05-05 17:11 | 53.67891 | 10.25619 | 34915 ft | 431 kts | 187° |
| 2026-05-05 17:12 | 53.61891 | 10.25518 | 34927 ft | 431 kts | 187° |
| 2026-05-05 17:12 | 53.55896 | 10.25416 | 34920 ft | 431 kts | 187° |
| 2026-05-05 17:13 | 53.49906 | 10.25314 | 34922 ft | 430 kts | 187° |
| 2026-05-05 17:13 | 53.43926 | 10.25227 | 34920 ft | 429 kts | 186° |
| 2026-05-05 17:14 | 53.37996 | 10.25137 | 34920 ft | 428 kts | 186° |
| 2026-05-05 17:14 | 53.32004 | 10.25034 | 34918 ft | 427 kts | 187° |
| 2026-05-05 17:15 | 53.26104 | 10.24927 | 34915 ft | 426 kts | 187° |
| 2026-05-05 17:15 | 53.20177 | 10.24838 | 34911 ft | 425 kts | 186° |
| 2026-05-05 17:16 | 53.14259 | 10.24753 | 34907 ft | 424 kts | 186° |
| 2026-05-05 17:16 | 53.08360 | 10.24653 | 34906 ft | 423 kts | 186° |
| 2026-05-05 17:17 | 53.02470 | 10.24557 | 34910 ft | 422 kts | 186° |
| 2026-05-05 17:17 | 52.96599 | 10.24462 | 34909 ft | 421 kts | 186° |
| 2026-05-05 17:18 | 52.90773 | 10.24363 | 34904 ft | 421 kts | 186° |
| 2026-05-05 17:18 | 52.84915 | 10.24272 | 34904 ft | 421 kts | 186° |
| 2026-05-05 17:19 | 52.79058 | 10.24188 | 34900 ft | 420 kts | 186° |
| 2026-05-05 17:19 | 52.73212 | 10.24091 | 34898 ft | 420 kts | 186° |
| 2026-05-05 17:20 | 52.67363 | 10.23989 | 34899 ft | 419 kts | 186° |
| 2026-05-05 17:20 | 52.61532 | 10.23902 | 34893 ft | 419 kts | 186° |
| 2026-05-05 17:21 | 52.55706 | 10.23815 | 34893 ft | 418 kts | 186° |
| 2026-05-05 17:22 | 52.47015 | 10.23670 | 34883 ft | 418 kts | 185° |
| 2026-05-05 17:22 | 52.41192 | 10.23573 | 34876 ft | 418 kts | 185° |
| 2026-05-05 17:23 | 52.35379 | 10.23479 | 34862 ft | 418 kts | 185° |
| 2026-05-05 17:23 | 52.29567 | 10.23392 | 34861 ft | 418 kts | 185° |
| 2026-05-05 17:24 | 52.23756 | 10.23303 | 34858 ft | 418 kts | 185° |
| 2026-05-05 17:24 | 52.17940 | 10.23224 | 34858 ft | 418 kts | 185° |
| 2026-05-05 17:25 | 52.12121 | 10.23140 | 34857 ft | 418 kts | 185° |
| 2026-05-05 17:25 | 52.06306 | 10.23043 | 34856 ft | 418 kts | 185° |
| 2026-05-05 17:26 | 52.00533 | 10.22949 | 34852 ft | 418 kts | 185° |
| 2026-05-05 17:26 | 51.94713 | 10.22868 | 34850 ft | 418 kts | 184° |
| 2026-05-05 17:27 | 51.88898 | 10.22790 | 34849 ft | 418 kts | 184° |
| 2026-05-05 17:27 | 51.83072 | 10.22696 | 34840 ft | 418 kts | 184° |
| 2026-05-05 17:28 | 51.77249 | 10.22602 | 34841 ft | 418 kts | 184° |
| 2026-05-05 17:28 | 51.71432 | 10.22514 | 34837 ft | 418 kts | 184° |
| 2026-05-05 17:29 | 51.65614 | 10.22429 | 34833 ft | 418 kts | 184° |
| 2026-05-05 17:29 | 51.59835 | 10.22345 | 34547 ft | 416 kts | 184° |
| 2026-05-05 17:29 | 51.56943 | 10.22300 | 33846 ft | 416 kts | 184° |
| 2026-05-05 17:30 | 51.54052 | 10.22257 | 33023 ft | 416 kts | 184° |
| 2026-05-05 17:30 | 51.51148 | 10.22211 | 32149 ft | 418 kts | 184° |
| 2026-05-05 17:30 | 51.48232 | 10.22162 | 31259 ft | 420 kts | 183° |
| 2026-05-05 17:30 | 51.45272 | 10.22116 | 30555 ft | 418 kts | 183° |
| 2026-05-05 17:31 | 51.42414 | 10.22077 | 30016 ft | 415 kts | 183° |
| 2026-05-05 17:31 | 51.39491 | 10.22038 | 29806 ft | 415 kts | 183° |
| 2026-05-05 17:31 | 51.36604 | 10.21997 | 29822 ft | 415 kts | 183° |
| 2026-05-05 17:32 | 51.30856 | 10.21907 | 29676 ft | 413 kts | 183° |
| 2026-05-05 17:32 | 51.27989 | 10.21850 | 28994 ft | 410 kts | 183° |
| 2026-05-05 17:32 | 51.25152 | 10.21790 | 28333 ft | 406 kts | 183° |
| 2026-05-05 17:32 | 51.22331 | 10.21730 | 27684 ft | 403 kts | 183° |
| 2026-05-05 17:33 | 51.19543 | 10.21671 | 27086 ft | 400 kts | 183° |
| 2026-05-05 17:33 | 51.16770 | 10.21613 | 26622 ft | 397 kts | 183° |
| 2026-05-05 17:33 | 51.14020 | 10.21556 | 26035 ft | 394 kts | 183° |
| 2026-05-05 17:33 | 51.11288 | 10.21507 | 25455 ft | 392 kts | 182° |
| 2026-05-05 17:34 | 51.08568 | 10.21465 | 24879 ft | 389 kts | 182° |
| 2026-05-05 17:34 | 51.05869 | 10.21421 | 24337 ft | 387 kts | 182° |
| 2026-05-05 17:34 | 51.03191 | 10.21372 | 23906 ft | 380 kts | 182° |
| 2026-05-05 17:34 | 51.00635 | 10.21327 | 23757 ft | 356 kts | 182° |
| 2026-05-05 17:35 | 50.98217 | 10.21294 | 23524 ft | 342 kts | 182° |
| 2026-05-05 17:35 | 50.95865 | 10.21276 | 23087 ft | 334 kts | 182° |
| 2026-05-05 17:35 | 50.93556 | 10.21245 | 22339 ft | 330 kts | 183° |
| 2026-05-05 17:35 | 50.91275 | 10.21121 | 21592 ft | 326 kts | 184° |
| 2026-05-05 17:36 | 50.89020 | 10.20955 | 20949 ft | 323 kts | 183° |
| 2026-05-05 17:36 | 50.86779 | 10.20741 | 20517 ft | 322 kts | 184° |
| 2026-05-05 17:36 | 50.84581 | 10.20510 | 20134 ft | 320 kts | 184° |
| 2026-05-05 17:36 | 50.82371 | 10.20271 | 19753 ft | 318 kts | 184° |
| 2026-05-05 17:37 | 50.80172 | 10.20030 | 19372 ft | 316 kts | 184° |
| 2026-05-05 17:37 | 50.78690 | 10.19864 | 19116 ft | 315 kts | 184° |
| 2026-05-05 17:37 | 50.75801 | 10.19534 | 18624 ft | 313 kts | 184° |
| 2026-05-05 17:37 | 50.73678 | 10.18866 | 18268 ft | 311 kts | 201° |
| 2026-05-05 17:38 | 50.71843 | 10.17088 | 17860 ft | 312 kts | 221° |
| 2026-05-05 17:38 | 50.70499 | 10.14396 | 17438 ft | 314 kts | 234° |
| 2026-05-05 17:38 | 50.69320 | 10.11506 | 17009 ft | 314 kts | 235° |
| 2026-05-05 17:38 | 50.68151 | 10.08606 | 16622 ft | 313 kts | 235° |
| 2026-05-05 17:39 | 50.66987 | 10.05718 | 16241 ft | 311 kts | 235° |
| 2026-05-05 17:39 | 50.65824 | 10.02840 | 15870 ft | 310 kts | 235° |
| 2026-05-05 17:39 | 50.64665 | 9.99986 | 15514 ft | 308 kts | 235° |
| 2026-05-05 17:39 | 50.63509 | 9.97149 | 15152 ft | 307 kts | 235° |
| 2026-05-05 17:40 | 50.62354 | 9.94326 | 14810 ft | 306 kts | 235° |
| 2026-05-05 17:40 | 50.61203 | 9.91511 | 14477 ft | 305 kts | 235° |
| 2026-05-05 17:40 | 50.60057 | 9.88706 | 14138 ft | 304 kts | 235° |
| 2026-05-05 17:40 | 50.58913 | 9.85913 | 13806 ft | 303 kts | 235° |
| 2026-05-05 17:41 | 50.57774 | 9.83132 | 13456 ft | 302 kts | 236° |
| 2026-05-05 17:41 | 50.56639 | 9.80364 | 13095 ft | 301 kts | 236° |
| 2026-05-05 17:41 | 50.55504 | 9.77602 | 12740 ft | 299 kts | 235° |
| 2026-05-05 17:41 | 50.54378 | 9.74867 | 12396 ft | 298 kts | 235° |
| 2026-05-05 17:42 | 50.53256 | 9.72142 | 12031 ft | 296 kts | 236° |
| 2026-05-05 17:42 | 50.52050 | 9.69532 | 11700 ft | 294 kts | 230° |
| 2026-05-05 17:42 | 50.50765 | 9.67044 | 11357 ft | 292 kts | 229° |
| 2026-05-05 17:42 | 50.49497 | 9.64618 | 11020 ft | 291 kts | 229° |
| 2026-05-05 17:43 | 50.48217 | 9.62172 | 10787 ft | 289 kts | 229° |
| 2026-05-05 17:43 | 50.46946 | 9.59744 | 10459 ft | 288 kts | 229° |
| 2026-05-05 17:43 | 50.45677 | 9.57320 | 10114 ft | 286 kts | 229° |
| 2026-05-05 17:43 | 50.44414 | 9.54913 | 9773 ft | 285 kts | 229° |
| 2026-05-05 17:44 | 50.43161 | 9.52526 | 9425 ft | 282 kts | 229° |
| 2026-05-05 17:44 | 50.41917 | 9.50158 | 9051 ft | 280 kts | 229° |
| 2026-05-05 17:44 | 50.40679 | 9.47809 | 8676 ft | 279 kts | 229° |
| 2026-05-05 17:44 | 50.39447 | 9.45472 | 8307 ft | 277 kts | 229° |
| 2026-05-05 17:45 | 50.38214 | 9.43170 | 7929 ft | 274 kts | 225° |
| 2026-05-05 17:45 | 50.36848 | 9.41122 | 7808 ft | 272 kts | 221° |
| 2026-05-05 17:45 | 50.35451 | 9.39105 | 7812 ft | 274 kts | 221° |
| 2026-05-05 17:45 | 50.34040 | 9.37093 | 7813 ft | 274 kts | 221° |
| 2026-05-05 17:46 | 50.32628 | 9.35089 | 7741 ft | 272 kts | 221° |
| 2026-05-05 17:46 | 50.31232 | 9.33106 | 7343 ft | 271 kts | 221° |
| 2026-05-05 17:46 | 50.29838 | 9.31122 | 6952 ft | 270 kts | 221° |
| 2026-05-05 17:46 | 50.28459 | 9.29156 | 6806 ft | 268 kts | 221° |
| 2026-05-05 17:47 | 50.27077 | 9.27190 | 6819 ft | 269 kts | 221° |
| 2026-05-05 17:47 | 50.25696 | 9.25231 | 6654 ft | 267 kts | 221° |
| 2026-05-05 17:47 | 50.24325 | 9.23287 | 6266 ft | 265 kts | 221° |
| 2026-05-05 17:47 | 50.22971 | 9.21365 | 5735 ft | 261 kts | 222° |
| 2026-05-05 17:48 | 50.22084 | 9.20104 | 5306 ft | 260 kts | 222° |
| 2026-05-05 17:48 | 50.20780 | 9.18255 | 5036 ft | 243 kts | 222° |
| 2026-05-05 17:48 | 50.19184 | 9.15990 | 4989 ft | 231 kts | 222° |
| 2026-05-05 17:48 | 50.18386 | 9.14858 | 4991 ft | 230 kts | 222° |
| 2026-05-05 17:49 | 50.16893 | 9.12529 | 4989 ft | 229 kts | 236° |
| 2026-05-05 17:49 | 50.16164 | 9.10318 | 4991 ft | 230 kts | 247° |
| 2026-05-05 17:49 | 50.15788 | 9.08767 | 4984 ft | 223 kts | 249° |
| 2026-05-05 17:49 | 50.15269 | 9.06504 | 4988 ft | 221 kts | 249° |
| 2026-05-05 17:50 | 50.14750 | 9.04259 | 4995 ft | 220 kts | 249° |
| 2026-05-05 17:50 | 50.14228 | 9.02020 | 4994 ft | 220 kts | 249° |
| 2026-05-05 17:50 | 50.13706 | 8.99783 | 4992 ft | 219 kts | 249° |
| 2026-05-05 17:50 | 50.13189 | 8.97572 | 4995 ft | 220 kts | 248° |
| 2026-05-05 17:51 | 50.12665 | 8.95334 | 4995 ft | 220 kts | 249° |
| 2026-05-05 17:51 | 50.12135 | 8.93071 | 4915 ft | 220 kts | 249° |
| 2026-05-05 17:51 | 50.11612 | 8.90842 | 4684 ft | 217 kts | 249° |
| 2026-05-05 17:51 | 50.11105 | 8.88681 | 4411 ft | 214 kts | 249° |
| 2026-05-05 17:52 | 50.10597 | 8.86521 | 4136 ft | 211 kts | 249° |
| 2026-05-05 17:52 | 50.10095 | 8.84386 | 3857 ft | 209 kts | 249° |
| 2026-05-05 17:52 | 50.09598 | 8.82276 | 3579 ft | 208 kts | 250° |
| 2026-05-05 17:52 | 50.09100 | 8.80164 | 3303 ft | 207 kts | 250° |
| 2026-05-05 17:53 | 50.08607 | 8.78072 | 3026 ft | 205 kts | 250° |
| 2026-05-05 17:53 | 50.08116 | 8.75993 | 2752 ft | 201 kts | 250° |
| 2026-05-05 17:53 | 50.07643 | 8.73991 | 2511 ft | 194 kts | 250° |
| 2026-05-05 17:53 | 50.07184 | 8.72052 | 2227 ft | 187 kts | 250° |
| 2026-05-05 17:54 | 50.06743 | 8.70192 | 1985 ft | 178 kts | 250° |
| 2026-05-05 17:54 | 50.06333 | 8.68462 | 1750 ft | 163 kts | 250° |
| 2026-05-05 17:54 | 50.05961 | 8.66895 | 1559 ft | 147 kts | 250° |
| 2026-05-05 17:54 | 50.05615 | 8.65437 | 1350 ft | 141 kts | 250° |
| 2026-05-05 17:55 | 50.05276 | 8.64009 | 1138 ft | 140 kts | 250° |
| 2026-05-05 17:55 | 50.04941 | 8.62599 | 952 ft | 139 kts | 250° |
| 2026-05-05 17:55 | 50.04607 | 8.61193 | 755 ft | 139 kts | 250° |
| 2026-05-05 17:55 | 50.04272 | 8.59787 | 570 ft | 139 kts | 249° |
| 2026-05-05 17:56 | 50.03942 | 8.58384 | 362 ft | 138 kts | 251° |
| 2026-05-05 17:56 | 50.03642 | 8.57139 | 353 ft | 102 kts | 250° |
| 2026-05-05 17:56 | 50.03454 | 8.56343 | 347 ft | 60 kts | 249° |
| 2026-05-05 17:56 | 50.03340 | 8.55859 | 350 ft | 34 kts | 250° |
| 2026-05-05 17:57 | 50.03302 | 8.55667 | 349 ft | 8 kts | 259° |
| 2026-05-05 17:57 | 50.03308 | 8.55621 | 351 ft | 2 kts | 302° |
| 2026-05-05 17:57 | 50.03347 | 8.55586 | 348 ft | 10 kts | 340° |
| 2026-05-05 17:57 | 50.03394 | 8.55560 | 352 ft | 4 kts | 341° |
| 2026-05-05 17:58 | 50.03451 | 8.55528 | 350 ft | 13 kts | 340° |
| 2026-05-05 17:58 | 50.03485 | 8.55487 | 346 ft | 1 kts | 297° |
| 2026-05-05 17:58 | 50.03488 | 8.55444 | 346 ft | 10 kts | 265° |
| 2026-05-05 17:58 | 50.03469 | 8.55363 | 349 ft | 4 kts | 247° |
| 2026-05-05 17:59 | 50.03456 | 8.55317 | 344 ft | 9 kts | 247° |
| 2026-05-05 17:59 | 50.03422 | 8.55182 | 347 ft | 14 kts | 248° |
| 2026-05-05 17:59 | 50.03395 | 8.55067 | 349 ft | 10 kts | 250° |
| 2026-05-05 17:59 | 50.03372 | 8.54965 | 348 ft | 11 kts | 250° |
| 2026-05-05 18:00 | 50.03344 | 8.54849 | 348 ft | 12 kts | 249° |
| 2026-05-05 18:00 | 50.03312 | 8.54718 | 352 ft | 14 kts | 249° |
| 2026-05-05 18:00 | 50.03282 | 8.54593 | 350 ft | 9 kts | 251° |
| 2026-05-05 18:00 | 50.03274 | 8.54534 | 350 ft | 4 kts | 272° |
| 2026-05-05 18:01 | 50.03321 | 8.54473 | 353 ft | 11 kts | 342° |
| 2026-05-05 18:01 | 50.03386 | 8.54439 | 350 ft | 9 kts | 341° |
| 2026-05-05 18:01 | 50.03488 | 8.54382 | 350 ft | 20 kts | 339° |
| 2026-05-05 18:01 | 50.03606 | 8.54311 | 348 ft | 17 kts | 339° |
| 2026-05-05 18:02 | 50.03659 | 8.54327 | 350 ft | 6 kts | 51° |
| 2026-05-05 18:02 | 50.03675 | 8.54385 | 349 ft | 8 kts | 69° |
| 2026-05-05 18:02 | 50.03691 | 8.54452 | 347 ft | 8 kts | 69° |
| 2026-05-05 18:02 | 50.03723 | 8.54587 | 355 ft | 15 kts | 70° |
| 2026-05-05 18:03 | 50.03754 | 8.54715 | 352 ft | 12 kts | 68° |
| 2026-05-05 18:03 | 50.03792 | 8.54873 | 347 ft | 19 kts | 70° |